Time;durP1;ratioP1;P1;durP2;ratioP2;P2;SDS_P1;SDS_P2;PMS_P1;PMS_P2;Temp;Humidity;BMP_temperature;BMP_pressure;BME280_temperature;BME280_humidity;BME280_pressure;Samples;Min_cycle;Max_cycle;Signal;HPM_P1;HPM_P2
2022/05/12 00:01:10;;;;;;;5.93;5.43;;;18.90;99.90;;;;;;4995559;28;20264;-61
2022/05/12 00:03:36;;;;;;;6.73;6.13;;;18.90;99.90;;;;;;4995185;28;20181;-59
2022/05/12 00:06:02;;;;;;;7.20;5.83;;;18.80;99.90;;;;;;4995390;28;20204;-59
2022/05/12 00:08:27;;;;;;;7.23;5.73;;;18.80;99.90;;;;;;4995509;28;20630;-60
2022/05/12 00:10:54;;;;;;;6.37;5.43;;;18.80;99.90;;;;;;4995352;28;20193;-61
2022/05/12 00:13:20;;;;;;;6.27;5.33;;;18.70;99.90;;;;;;4995354;28;20173;-60
2022/05/12 00:15:48;;;;;;;5.30;4.70;;;18.70;99.90;;;;;;4994984;28;20175;-58
2022/05/12 00:18:14;;;;;;;5.73;4.77;;;18.70;99.90;;;;;;4995299;28;20180;-61
2022/05/12 00:20:41;;;;;;;6.53;5.50;;;18.60;99.90;;;;;;4995167;28;20554;-62
2022/05/12 00:23:13;;;;;;;6.17;5.27;;;18.50;99.90;;;;;;4995148;28;20791;-60
2022/05/12 00:25:40;;;;;;;6.40;4.90;;;18.60;99.90;;;;;;4994809;28;20671;-60
2022/05/12 00:28:06;;;;;;;5.77;4.70;;;18.90;99.90;;;;;;4995099;28;20171;-61
2022/05/12 00:30:32;;;;;;;5.00;4.57;;;18.50;99.90;;;;;;4994826;28;20329;-62
2022/05/12 00:32:58;;;;;;;5.30;4.83;;;18.40;99.90;;;;;;4995047;28;20655;-61
2022/05/12 00:35:24;;;;;;;5.40;4.90;;;18.40;99.90;;;;;;4994750;28;20179;-60
2022/05/12 00:37:49;;;;;;;8.33;4.80;;;18.40;99.90;;;;;;4994827;28;20739;-60
2022/05/12 00:40:16;;;;;;;5.90;4.83;;;18.30;99.90;;;;;;4994813;28;20206;-61
2022/05/12 00:42:55;;;;;;;5.20;4.70;;;18.30;99.90;;;;;;4994863;28;20179;-59
2022/05/12 00:45:21;;;;;;;7.97;5.00;;;18.30;99.90;;;;;;4994233;28;20207;-56
2022/05/12 00:47:47;;;;;;;5.80;5.30;;;18.30;99.90;;;;;;4994743;28;20182;-63
2022/05/12 00:50:12;;;;;;;5.50;5.00;;;18.30;99.90;;;;;;4994823;28;20205;-60
2022/05/12 00:52:38;;;;;;;6.87;5.20;;;18.20;99.90;;;;;;4994738;28;20174;-60
2022/05/12 00:55:10;;;;;;;5.53;4.83;;;18.30;99.90;;;;;;4994342;28;20189;-61
2022/05/12 00:57:40;;;;;;;6.90;5.13;;;18.10;99.90;;;;;;4994417;28;20173;-62
2022/05/12 01:00:08;;;;;;;7.30;5.07;;;18.10;99.90;;;;;;4994480;28;20204;-62
2022/05/12 01:02:36;;;;;;;5.77;5.27;;;18.00;99.90;;;;;;4994425;28;20196;-63
2022/05/12 01:05:03;;;;;;;5.57;4.60;;;18.00;99.90;;;;;;4994267;28;20238;-62
2022/05/12 01:07:29;;;;;;;6.17;5.03;;;18.00;99.90;;;;;;4994344;28;20168;-59
2022/05/12 01:09:55;;;;;;;7.23;5.93;;;18.00;99.90;;;;;;4994466;28;20200;-61
2022/05/12 01:12:20;;;;;;;7.53;6.73;;;17.90;99.90;;;;;;4994423;28;20197;-61
2022/05/12 01:14:46;;;;;;;9.70;8.80;;;17.90;99.90;;;;;;4994768;28;20678;-58
2022/05/12 01:17:12;;;;;;;9.40;8.50;;;17.80;99.90;;;;;;4995062;28;20173;-60
2022/05/12 01:19:40;;;;;;;8.80;7.63;;;17.70;99.90;;;;;;4994113;28;20667;-60
2022/05/12 01:22:09;;;;;;;8.80;7.80;;;17.80;99.90;;;;;;4994044;28;20201;-61
2022/05/12 01:24:37;;;;;;;8.50;7.63;;;17.80;99.90;;;;;;4993755;28;20570;-58
2022/05/12 01:27:22;;;;;;;8.10;7.30;;;17.80;99.90;;;;;;4993889;28;20175;-59
2022/05/12 01:29:58;;;;;;;10.57;7.00;;;17.70;99.90;;;;;;4976490;28;20594;-61
2022/05/12 01:32:26;;;;;;;8.50;7.40;;;17.80;99.90;;;;;;4993938;28;20259;-59
2022/05/12 01:34:52;;;;;;;7.63;6.83;;;17.80;99.90;;;;;;4993514;28;20568;-61
2022/05/12 01:37:18;;;;;;;7.87;6.83;;;17.80;99.90;;;;;;4993716;28;20257;-60
2022/05/12 01:39:44;;;;;;;7.67;6.87;;;17.90;99.90;;;;;;4993651;28;20729;-61
2022/05/12 01:42:11;;;;;;;7.27;6.50;;;17.90;99.90;;;;;;4993693;28;20179;-60
2022/05/12 01:44:37;;;;;;;7.93;6.63;;;17.90;99.90;;;;;;4975925;28;20287;-59
2022/05/12 01:47:04;;;;;;;8.57;7.13;;;17.90;99.90;;;;;;4993601;28;20170;-59
2022/05/12 01:49:30;;;;;;;8.83;6.90;;;17.80;99.90;;;;;;4993549;28;20209;-60
2022/05/12 01:51:57;;;;;;;8.17;6.80;;;17.80;99.90;;;;;;4993261;28;20321;-60
2022/05/12 01:54:25;;;;;;;8.20;7.40;;;17.80;99.90;;;;;;4992460;28;20264;-62
2022/05/12 01:56:51;;;;;;;8.67;7.67;;;17.80;99.90;;;;;;4993055;28;20229;-58
2022/05/12 01:59:18;;;;;;;8.80;8.00;;;17.70;99.90;;;;;;4993217;28;20184;-61
2022/05/12 02:01:45;;;;;;;9.53;8.60;;;17.70;99.90;;;;;;4993364;28;20190;-58
2022/05/12 02:04:10;;;;;;;9.00;8.10;;;17.70;99.90;;;;;;4992879;28;20525;-62
2022/05/12 02:06:36;;;;;;;13.40;9.20;;;17.70;99.90;;;;;;4992978;28;20196;-62
2022/05/12 02:09:03;;;;;;;9.30;8.40;;;16.50;99.90;;;;;;4993239;28;20177;-61
2022/05/12 02:11:28;;;;;;;10.50;9.50;;;17.70;99.90;;;;;;4993075;28;20196;-61
2022/05/12 02:13:54;;;;;;;10.40;9.10;;;18.30;99.90;;;;;;4992865;28;20181;-59
2022/05/12 02:16:19;;;;;;;8.20;7.40;;;17.70;99.90;;;;;;4993126;28;20177;-61
2022/05/12 02:18:45;;;;;;;6.70;6.10;;;17.60;99.90;;;;;;4992975;28;20228;-60
2022/05/12 02:21:11;;;;;;;6.50;5.73;;;17.60;99.90;;;;;;4993049;28;20215;-59
2022/05/12 02:23:36;;;;;;;6.67;5.40;;;17.60;99.90;;;;;;4992772;28;20254;-59
2022/05/12 02:26:02;;;;;;;5.93;5.33;;;17.50;99.90;;;;;;4992871;28;20205;-61
2022/05/12 02:28:28;;;;;;;5.90;5.30;;;17.50;99.90;;;;;;4992892;28;20310;-60
2022/05/12 02:30:54;;;;;;;6.30;5.70;;;17.40;99.90;;;;;;4992825;28;20274;-60
2022/05/12 02:33:19;;;;;;;6.10;5.50;;;17.40;99.90;;;;;;4992833;28;20642;-59
2022/05/12 02:35:45;;;;;;;10.10;6.10;;;17.40;99.90;;;;;;4992516;28;20189;-59
2022/05/12 02:38:11;;;;;;;7.00;6.33;;;17.30;99.90;;;;;;4992415;28;20173;-61
2022/05/12 02:40:37;;;;;;;7.70;6.20;;;17.30;99.90;;;;;;4992570;28;20590;-61
2022/05/12 02:43:23;;;;;;;7.80;7.10;;;17.30;99.90;;;;;;4992812;28;20188;-58
2022/05/12 02:45:52;;;;;;;7.77;6.97;;;17.30;99.90;;;;;;4992529;28;20205;-63
2022/05/12 02:48:20;;;;;;;7.50;6.80;;;17.30;99.90;;;;;;4992517;28;20312;-60
2022/05/12 02:50:46;;;;;;;7.93;7.13;;;17.20;99.90;;;;;;4994110;28;20212;-61
2022/05/12 02:53:11;;;;;;;8.70;7.80;;;17.20;99.90;;;;;;4992619;28;20203;-61
2022/05/12 02:55:37;;;;;;;7.10;6.40;;;17.20;99.90;;;;;;4992277;28;20256;-62
2022/05/12 02:58:03;;;;;;;8.80;6.53;;;17.20;99.90;;;;;;4992435;28;20169;-60
2022/05/12 03:00:29;;;;;;;6.57;5.90;;;17.20;99.90;;;;;;4992452;28;20204;-61
2022/05/12 03:02:54;;;;;;;7.83;6.30;;;17.10;99.90;;;;;;4992538;28;20185;-59
2022/05/12 03:05:20;;;;;;;7.30;6.33;;;17.00;99.90;;;;;;4991308;28;20209;-60
2022/05/12 03:07:45;;;;;;;7.60;6.33;;;17.00;99.90;;;;;;4992558;28;20654;-58
2022/05/12 03:10:12;;;;;;;9.57;7.10;;;17.00;99.90;;;;;;4992276;28;20197;-61
2022/05/12 03:12:37;;;;;;;7.63;6.87;;;17.00;99.90;;;;;;4992425;28;20172;-60
2022/05/12 03:15:05;;;;;;;8.43;7.30;;;17.00;99.90;;;;;;4974671;28;20181;-61
2022/05/12 03:17:31;;;;;;;8.03;7.23;;;17.00;99.90;;;;;;4992304;28;20708;-62
2022/05/12 03:19:56;;;;;;;8.37;7.57;;;17.00;99.90;;;;;;4992378;28;20292;-63
2022/05/12 03:22:22;;;;;;;10.67;7.87;;;17.00;99.90;;;;;;4992308;28;20189;-60
2022/05/12 03:24:47;;;;;;;8.77;7.87;;;17.00;99.90;;;;;;4992063;28;20275;-59
2022/05/12 03:27:14;;;;;;;8.77;7.87;;;16.90;99.90;;;;;;4992198;28;20173;-62
2022/05/12 03:29:39;;;;;;;9.40;8.50;;;16.90;99.90;;;;;;4992104;28;20180;-62
2022/05/12 03:32:10;;;;;;;8.80;7.90;;;16.90;99.90;;;;;;4992116;28;20546;-63
2022/05/12 03:34:37;;;;;;;9.20;8.40;;;16.90;99.90;;;;;;4991992;28;20665;-62
2022/05/12 03:37:03;;;;;;;9.43;8.23;;;16.90;99.90;;;;;;4992188;28;20199;-61
2022/05/12 03:39:29;;;;;;;8.47;7.67;;;16.90;99.90;;;;;;4992184;28;20614;-61
2022/05/12 03:41:54;;;;;;;9.37;8.47;;;16.80;99.90;;;;;;4992032;28;20284;-61
2022/05/12 03:47:04;;;;;;;7.57;6.77;;;16.90;99.90;;;;;;4992124;28;20232;-63
2022/05/12 03:49:29;;;;;;;6.13;5.63;;;16.90;99.90;;;;;;4992227;28;20177;-62
2022/05/12 03:51:55;;;;;;;6.17;5.67;;;16.90;99.90;;;;;;4991959;28;20666;-62
2022/05/12 03:54:20;;;;;;;6.00;5.50;;;16.90;99.90;;;;;;4991745;28;20180;-61
2022/05/12 03:56:46;;;;;;;6.97;5.87;;;16.90;99.90;;;;;;4992266;28;20170;-60
2022/05/12 03:59:11;;;;;;;6.30;5.70;;;17.00;99.90;;;;;;4992047;28;20631;-58
2022/05/12 04:01:37;;;;;;;5.93;5.37;;;16.90;99.90;;;;;;4992186;28;20658;-62
2022/05/12 04:04:03;;;;;;;7.00;5.97;;;16.90;99.90;;;;;;4991635;28;20220;-59
2022/05/12 04:06:28;;;;;;;6.20;5.60;;;16.80;99.90;;;;;;4991704;28;20205;-57
2022/05/12 04:08:54;;;;;;;6.03;5.40;;;16.90;99.90;;;;;;4991829;28;20174;-60
2022/05/12 04:11:19;;;;;;;7.40;6.47;;;17.60;99.90;;;;;;4991736;28;20753;-61
2022/05/12 04:13:45;;;;;;;6.73;6.00;;;16.80;99.90;;;;;;4991849;28;20228;-59
2022/05/12 04:16:11;;;;;;;8.80;7.90;;;16.80;99.90;;;;;;4993071;28;20173;-59
2022/05/12 04:18:36;;;;;;;10.07;7.43;;;16.80;99.90;;;;;;4995505;28;20681;-58
2022/05/12 04:21:02;;;;;;;8.03;7.17;;;16.80;99.90;;;;;;4995073;28;20217;-59
2022/05/12 04:23:27;;;;;;;6.93;6.23;;;16.80;99.90;;;;;;4995067;28;20173;-57
2022/05/12 04:25:53;;;;;;;8.83;7.93;;;16.70;99.90;;;;;;4994976;28;20193;-59
2022/05/12 04:28:19;;;;;;;8.77;7.97;;;16.70;99.90;;;;;;4995010;28;20205;-61
2022/05/12 04:30:45;;;;;;;8.43;7.60;;;16.70;99.90;;;;;;4995037;28;20195;-62
2022/05/12 04:35:59;;;;;;;9.57;8.67;;;16.70;99.90;;;;;;4966862;28;20204;-62
2022/05/12 04:38:26;;;;;;;8.80;7.90;;;16.60;99.90;;;;;;4994846;28;20174;-59
2022/05/12 04:40:52;;;;;;;10.50;8.73;;;16.60;99.90;;;;;;4994748;28;20189;-60
2022/05/12 04:43:17;;;;;;;9.77;8.47;;;16.60;99.90;;;;;;4994833;28;20201;-59
2022/05/12 04:45:43;;;;;;;11.00;8.97;;;16.60;99.90;;;;;;4994536;28;20600;-59
2022/05/12 04:48:10;;;;;;;10.93;9.83;;;16.50;99.90;;;;;;4994782;28;20224;-60
2022/05/12 04:50:40;;;;;;;10.40;9.30;;;16.40;99.90;;;;;;4994588;28;20209;-58
2022/05/12 04:53:06;;;;;;;10.33;9.20;;;16.40;99.90;;;;;;4994488;28;20173;-60
2022/05/12 04:55:33;;;;;;;10.77;8.93;;;16.50;99.90;;;;;;4994362;28;20644;-60
2022/05/12 04:57:59;;;;;;;10.50;9.33;;;16.60;99.90;;;;;;4994503;28;20642;-62
2022/05/12 05:00:40;;;;;;;11.90;10.60;;;16.70;99.90;;;;;;4994495;28;20197;-61
2022/05/12 05:03:06;;;;;;;10.07;9.07;;;16.80;99.90;;;;;;4994570;28;20726;-62
2022/05/12 05:05:32;;;;;;;7.67;6.90;;;16.90;99.90;;;;;;4994028;28;20682;-61
2022/05/12 05:07:57;;;;;;;9.90;8.40;;;16.90;99.90;;;;;;4976925;28;20180;-60
2022/05/12 05:10:23;;;;;;;7.93;7.13;;;17.00;99.90;;;;;;4994332;28;20623;-62
2022/05/12 05:12:49;;;;;;;7.03;6.33;;;17.00;99.90;;;;;;4994412;28;20243;-59
2022/05/12 05:15:16;;;;;;;7.50;6.40;;;17.00;99.90;;;;;;4994091;28;20304;-60
2022/05/12 05:17:42;;;;;;;9.20;6.83;;;16.90;99.90;;;;;;4994075;28;20228;-60
2022/05/12 05:20:11;;;;;;;8.67;6.17;;;17.00;99.90;;;;;;4994118;28;20204;-62
2022/05/12 05:22:37;;;;;;;8.13;6.20;;;17.00;99.90;;;;;;4976654;28;20177;-60
2022/05/12 05:25:03;;;;;;;6.20;5.50;;;17.10;99.90;;;;;;4993938;28;20292;-62
2022/05/12 05:27:29;;;;;;;7.10;5.63;;;17.20;99.90;;;;;;4993217;28;20603;-59
2022/05/12 05:29:55;;;;;;;7.17;5.93;;;17.20;99.90;;;;;;4993990;28;20256;-61
2022/05/12 05:32:21;;;;;;;6.00;5.47;;;17.30;99.90;;;;;;4993966;28;20546;-63
2022/05/12 05:34:47;;;;;;;7.30;5.57;;;17.50;99.90;;;;;;4993611;28;20177;-61
2022/05/12 05:37:13;;;;;;;6.90;5.37;;;17.60;99.90;;;;;;4993683;28;20262;-60
2022/05/12 05:39:38;;;;;;;6.03;5.50;;;17.70;99.90;;;;;;4993776;28;20269;-57
2022/05/12 05:42:09;;;;;;;5.97;5.37;;;17.80;99.90;;;;;;4993683;28;20555;-62
2022/05/12 05:44:35;;;;;;;7.60;5.97;;;17.70;99.90;;;;;;4993174;28;20696;-59
2022/05/12 05:47:01;;;;;;;5.40;4.90;;;17.80;99.90;;;;;;4993522;28;20178;-58
2022/05/12 05:49:29;;;;;;;6.07;5.20;;;17.90;99.90;;;;;;4993727;28;20243;-61
2022/05/12 05:54:40;;;;;;;7.43;5.60;;;18.20;99.90;;;;;;4993160;28;20679;-59
2022/05/12 05:57:05;;;;;;;6.07;5.43;;;18.30;99.90;;;;;;4993201;28;20260;-59
2022/05/12 05:59:31;;;;;;;5.63;5.13;;;18.50;99.90;;;;;;4993257;28;20195;-62
2022/05/12 06:01:57;;;;;;;5.77;5.23;;;18.60;99.90;;;;;;4993197;28;20696;-60
2022/05/12 06:04:23;;;;;;;5.60;5.10;;;18.80;99.90;;;;;;4992750;28;20177;-61
2022/05/12 06:06:48;;;;;;;6.27;5.20;;;18.90;99.90;;;;;;4993216;28;20176;-60
2022/05/12 06:09:14;;;;;;;5.87;5.27;;;19.00;99.90;;;;;;4993130;28;20173;-62
2022/05/12 06:11:44;;;;;;;5.40;4.90;;;19.10;99.90;;;;;;4993165;28;20665;-58
2022/05/12 06:14:11;;;;;;;6.27;4.80;;;19.20;99.90;;;;;;4992877;28;20184;-62
2022/05/12 06:16:36;;;;;;;5.87;4.93;;;19.30;99.90;;;;;;4993204;28;20651;-60
2022/05/12 06:19:03;;;;;;;5.07;4.57;;;19.30;99.90;;;;;;4993104;28;20188;-62
2022/05/12 06:21:29;;;;;;;5.43;4.93;;;19.40;99.90;;;;;;4992989;28;20690;-57
2022/05/12 06:23:54;;;;;;;5.23;4.37;;;19.50;99.90;;;;;;4992699;28;20212;-61
2022/05/12 06:26:20;;;;;;;6.63;4.83;;;19.60;99.90;;;;;;4992787;28;20201;-60
2022/05/12 06:28:47;;;;;;;5.10;4.63;;;19.70;99.90;;;;;;4992816;28;20177;-62
2022/05/12 06:31:24;;;;;;;5.83;5.27;;;19.80;99.90;;;;;;4992809;28;20189;-62
2022/05/12 06:33:50;;;;;;;5.93;4.93;;;19.80;99.90;;;;;;4989574;28;20211;-61
2022/05/12 06:36:16;;;;;;;5.63;5.13;;;19.80;99.90;;;;;;4970452;28;20659;-61
2022/05/12 06:38:42;;;;;;;6.47;5.20;;;19.70;99.90;;;;;;4992154;28;20195;-58
2022/05/12 06:41:07;;;;;;;6.03;5.43;;;19.70;99.90;;;;;;4991818;28;20212;-62
2022/05/12 06:43:34;;;;;;;10.97;5.60;;;19.80;99.90;;;;;;4991788;28;20189;-59
2022/05/12 06:46:00;;;;;;;10.00;5.00;;;19.70;99.90;;;;;;4990484;28;20216;-56
2022/05/12 06:48:26;;;;;;;5.77;5.27;;;19.60;99.90;;;;;;4991801;28;20172;-61
2022/05/12 06:50:52;;;;;;;5.97;5.27;;;19.60;99.90;;;;;;4991903;28;20233;-60
2022/05/12 06:53:17;;;;;;;6.00;5.40;;;19.50;99.90;;;;;;4992296;28;20593;-59
2022/05/12 06:55:43;;;;;;;6.20;5.60;;;19.50;99.90;;;;;;4974500;28;20234;-61
2022/05/12 06:58:10;;;;;;;5.93;5.20;;;19.60;99.90;;;;;;4992256;28;20180;-58
2022/05/12 07:00:36;;;;;;;5.63;5.07;;;19.70;99.90;;;;;;4992403;28;20220;-58
2022/05/12 07:03:01;;;;;;;7.23;5.77;;;19.90;99.90;;;;;;4992288;28;20227;-59
2022/05/12 07:05:27;;;;;;;6.13;4.97;;;20.00;99.90;;;;;;4991907;28;20284;-60
2022/05/12 07:07:54;;;;;;;6.37;5.33;;;20.00;99.90;;;;;;4992362;28;20188;-61
2022/05/12 07:10:24;;;;;;;8.07;5.60;;;20.00;99.90;;;;;;4992354;28;20197;-61
2022/05/12 07:12:50;;;;;;;5.50;5.00;;;20.00;99.90;;;;;;4992378;28;20527;-60
2022/05/12 07:15:16;;;;;;;6.13;5.23;;;20.10;99.90;;;;;;4992047;28;20173;-59
2022/05/12 07:17:43;;;;;;;5.67;5.17;;;20.20;99.90;;;;;;4992409;28;20185;-62
2022/05/12 07:28:26;;;;;;;8.10;4.93;;;20.40;99.90;;;;;;4992172;28;20180;-60
2022/05/12 07:31:03;;;;;;;5.63;5.13;;;20.40;99.90;;;;;;4992365;28;20590;-59
2022/05/12 07:33:30;;;;;;;6.60;5.03;;;20.50;99.90;;;;;;4991919;28;20161;-63
2022/05/12 07:35:57;;;;;;;5.77;4.90;;;20.40;99.90;;;;;;4974889;28;20239;-58
2022/05/12 07:38:22;;;;;;;5.70;4.70;;;20.50;99.90;;;;;;4992165;28;20177;-58
2022/05/12 07:40:48;;;;;;;7.00;4.60;;;20.50;99.90;;;;;;4974778;28;20666;-60
2022/05/12 07:43:14;;;;;;;4.90;4.50;;;20.60;99.90;;;;;;4992167;28;20177;-60
2022/05/12 07:45:40;;;;;;;6.00;4.10;;;20.70;99.90;;;;;;4991785;28;20302;-60
2022/05/12 07:48:06;;;;;;;6.28;4.72;;;20.80;99.90;;;;;;4991965;28;20177;-59
2022/05/12 07:50:32;;;;;;;6.57;4.65;;;21.00;99.90;;;;;;4992119;28;20210;-62
2022/05/12 07:52:57;;;;;;;5.68;3.65;;;21.10;99.90;;;;;;4995888;28;20807;-59
2022/05/12 07:55:23;;;;;;;3.97;3.42;;;21.20;99.90;;;;;;4995108;28;20188;-58
2022/05/12 07:57:50;;;;;;;4.95;3.53;;;21.10;99.90;;;;;;4995669;28;20185;-60
2022/05/12 08:00:16;;;;;;;4.53;3.15;;;21.20;99.90;;;;;;4995540;28;20197;-60
2022/05/12 08:02:42;;;;;;;3.25;2.95;;;21.30;99.90;;;;;;4995351;28;20194;-62
2022/05/12 08:05:08;;;;;;;4.05;2.95;;;21.30;99.90;;;;;;4995196;28;20215;-60
2022/05/12 08:07:34;;;;;;;4.72;3.30;;;21.60;99.90;;;;;;4995546;28;20198;-60
2022/05/12 08:10:01;;;;;;;5.45;3.30;;;21.60;99.90;;;;;;4995335;28;20664;-59
2022/05/12 08:12:27;;;;;;;4.05;3.20;;;21.50;99.90;;;;;;4995488;28;20173;-60
2022/05/12 08:14:54;;;;;;;3.60;3.30;;;21.40;99.90;;;;;;4995045;28;20238;-58
2022/05/12 08:17:19;;;;;;;4.50;3.40;;;21.60;99.90;;;;;;4995312;28;20181;-61
2022/05/12 08:19:45;;;;;;;4.65;3.22;;;21.80;99.90;;;;;;4995179;28;20312;-58
2022/05/12 08:22:11;;;;;;;4.72;3.10;;;22.10;99.90;;;;;;4995329;28;20193;-59
2022/05/12 08:24:36;;;;;;;4.72;3.22;;;22.30;99.90;;;;;;4995024;28;20694;-59
2022/05/12 08:27:03;;;;;;;3.72;3.35;;;22.50;99.90;;;;;;4995030;28;20173;-61
2022/05/12 08:29:29;;;;;;;5.32;3.28;;;22.70;99.90;;;;;;4977938;28;20593;-58
2022/05/12 08:31:54;;;;;;;4.07;3.20;;;22.80;99.90;;;;;;4994819;28;20193;-57
2022/05/12 08:34:20;;;;;;;3.63;3.33;;;22.60;99.90;;;;;;4994827;28;20196;-58
2022/05/12 08:36:45;;;;;;;6.50;3.28;;;22.90;99.90;;;;;;4994980;28;20162;-57
2022/05/12 08:39:11;;;;;;;3.38;2.80;;;23.00;99.90;;;;;;4986045;28;20181;-61
2022/05/12 08:41:48;;;;;;;3.25;3.03;;;23.10;99.90;;;;;;4983779;28;20194;-61
2022/05/12 08:44:19;;;;;;;5.72;2.72;;;23.30;99.90;;;;;;4983751;28;20223;-58
2022/05/12 08:46:59;;;;;;;4.45;2.80;;;23.20;99.90;;;;;;4984836;28;20192;-59
2022/05/12 08:49:45;;;;;;;4.28;2.65;;;22.90;99.90;;;;;;4985148;28;20161;-57
2022/05/12 08:52:20;;;;;;;4.25;2.50;;;22.90;99.90;;;;;;4981511;28;20182;-56
2022/05/12 08:55:01;;;;;;;3.22;2.70;;;22.90;99.90;;;;;;4986758;28;20183;-61
2022/05/12 08:57:35;;;;;;;2.70;2.22;;;23.00;99.90;;;;;;4989476;28;20201;-61
2022/05/12 09:00:06;;;;;;;5.72;2.65;;;23.20;99.90;;;;;;4993162;28;20280;-59
2022/05/12 09:02:57;;;;;;;3.83;2.58;;;23.40;99.90;;;;;;4989303;28;20231;-62
2022/05/12 09:05:28;;;;;;;3.05;2.40;;;23.60;99.90;;;;;;4990435;28;20840;-62
2022/05/12 09:08:16;;;;;;;4.35;2.60;;;23.90;99.90;;;;;;5014229;23;20228;-57
2022/05/12 09:10:47;;;;;;;5.45;2.42;;;24.20;99.90;;;;;;4994075;28;20184;-55
2022/05/12 09:13:20;;;;;;;4.00;2.80;;;24.30;99.90;;;;;;4993582;28;20212;-58
2022/05/12 09:16:16;;;;;;;4.00;2.67;;;24.30;99.90;;;;;;4993835;28;20203;-58
2022/05/12 09:18:42;;;;;;;3.42;2.20;;;23.90;99.90;;;;;;4993874;28;20205;-59
2022/05/12 09:21:15;;;;;;;4.30;2.70;;;23.70;99.90;;;;;;4994177;28;20169;-56
2022/05/12 09:23:42;;;;;;;6.10;2.28;;;23.60;99.90;;;;;;4993787;28;20177;-58
2022/05/12 09:26:29;;;;;;;3.95;2.60;;;23.70;99.90;;;;;;4993518;28;20267;-60
2022/05/12 09:29:09;;;;;;;4.65;2.50;;;23.80;99.90;;;;;;4993781;28;20227;-59
2022/05/12 09:31:34;;;;;;;3.28;2.72;;;23.60;99.90;;;;;;4993903;28;20169;-56
2022/05/12 09:34:24;;;;;;;2.72;2.53;;;23.80;99.90;;;;;;4993518;28;20272;-59
2022/05/12 09:36:51;;;;;;;3.30;2.75;;;23.90;99.90;;;;;;4993932;28;20165;-59
2022/05/12 09:39:37;;;;;;;3.42;2.60;;;23.80;99.90;;;;;;4993700;28;20198;-60
2022/05/12 09:42:03;;;;;;;4.60;2.60;;;23.80;99.90;;;;;;4993644;28;20593;-60
2022/05/12 09:44:32;;;;;;;6.03;2.95;;;24.00;99.90;;;;;;4992387;28;20200;-57
2022/05/12 09:47:09;;;;;;;2.97;2.70;;;24.00;99.90;;;;;;4992835;28;20720;-57
2022/05/12 09:49:39;;;;;;;4.22;2.80;;;23.90;99.90;;;;;;4993159;28;20273;-59
2022/05/12 09:52:27;;;;;;;5.95;3.00;;;23.70;99.90;;;;;;4992025;28;20197;-59
2022/05/12 09:55:20;;;;;;;3.03;2.70;;;23.80;99.90;;;;;;4988516;28;20181;-54
2022/05/12 09:57:50;;;;;;;4.90;2.95;;;24.00;99.90;;;;;;4992870;28;20252;-60
2022/05/12 10:00:38;;;;;;;5.75;2.90;;;24.20;99.90;;;;;;4993384;28;20172;-58
2022/05/12 10:09:18;;;;;;;3.42;3.00;;;24.20;99.90;;;;;;4993144;28;20220;-58
2022/05/12 10:12:15;;;;;;;4.25;2.67;;;24.20;99.50;;;;;;4993023;28;20673;-57
2022/05/12 10:14:55;;;;;;;2.70;2.50;;;24.30;99.90;;;;;;4990502;28;20196;-58
2022/05/12 10:17:33;;;;;;;5.18;2.95;;;24.60;99.90;;;;;;4991892;28;20219;-60
2022/05/12 10:20:08;;;;;;;3.20;2.92;;;24.80;99.50;;;;;;4988420;28;20177;-59
2022/05/12 10:22:42;;;;;;;3.13;2.85;;;24.70;99.90;;;;;;4992955;28;20171;-60
2022/05/12 10:25:26;;;;;;;3.88;2.95;;;24.80;99.90;;;;;;4992271;28;20255;-60
2022/05/12 10:28:23;;;;;;;6.63;3.10;;;24.70;99.90;;;;;;4992721;28;20678;-57
2022/05/12 10:30:54;;;;;;;3.40;3.10;;;24.80;99.30;;;;;;4992707;28;20178;-56
2022/05/12 10:33:38;;;;;;;3.05;2.80;;;24.80;98.70;;;;;;4992660;28;20176;-59
2022/05/12 10:36:22;;;;;;;4.45;2.80;;;24.70;99.90;;;;;;4992553;28;20178;-59
2022/05/12 10:39:00;;;;;;;3.67;2.95;;;24.70;99.50;;;;;;4992446;28;20188;-59
2022/05/12 10:41:30;;;;;;;3.25;2.92;;;24.60;99.90;;;;;;4991915;28;20585;-58
2022/05/12 10:44:08;;;;;;;5.57;3.00;;;24.70;99.90;;;;;;4992377;28;20173;-58
2022/05/12 10:47:06;;;;;;;3.17;2.90;;;24.80;99.80;;;;;;4992314;28;20236;-57
2022/05/12 10:49:37;;;;;;;4.57;2.90;;;24.80;99.90;;;;;;4992333;28;20190;-60
2022/05/12 10:52:18;;;;;;;5.43;2.97;;;24.90;99.80;;;;;;4992552;28;20245;-59
2022/05/12 10:55:02;;;;;;;3.30;3.00;;;24.70;99.50;;;;;;4992139;28;20173;-60
2022/05/12 10:57:51;;;;;;;3.22;2.88;;;24.60;99.90;;;;;;4992021;28;20671;-59
2022/05/12 11:00:51;;;;;;;4.30;3.00;;;24.80;99.20;;;;;;4991946;28;20178;-58
2022/05/12 11:03:29;;;;;;;3.88;3.08;;;24.90;99.90;;;;;;4991820;28;20251;-59
2022/05/12 11:06:05;;;;;;;3.90;3.03;;;25.10;99.90;;;;;;4992278;28;20606;-60
2022/05/12 11:08:43;;;;;;;3.60;3.00;;;25.20;99.20;;;;;;4992089;28;20208;-58
2022/05/12 11:11:15;;;;;;;2.90;2.70;;;25.30;99.00;;;;;;4992361;28;20547;-59
2022/05/12 11:13:57;;;;;;;2.80;2.60;;;25.20;99.70;;;;;;4991803;28;20180;-60
2022/05/12 11:16:26;;;;;;;3.78;3.00;;;25.40;98.50;;;;;;4992203;28;20687;-59
2022/05/12 11:19:21;;;;;;;3.58;3.00;;;25.50;99.90;;;;;;4992025;28;20212;-60
2022/05/12 11:22:13;;;;;;;4.60;2.97;;;25.60;99.90;;;;;;4992229;28;20170;-59
2022/05/12 11:25:13;;;;;;;3.53;3.20;;;25.70;99.80;;;;;;4991447;28;20268;-58
2022/05/12 11:29:41;;;;;;;4.72;3.10;;;25.50;98.60;;;;;;4995912;28;20579;-60
2022/05/12 11:30:47;;;;;;;4.95;3.55;;;25.40;98.90;;;;;;4995856;28;20260;-58
2022/05/12 11:33:34;;;;;;;4.03;3.60;;;25.50;98.00;;;;;;4995895;28;20196;-61
2022/05/12 11:36:01;;;;;;;3.50;3.20;;;25.50;99.40;;;;;;4995625;28;20328;-60
2022/05/12 11:38:39;;;;;;;5.35;3.25;;;25.60;99.30;;;;;;4995643;28;20193;-60
2022/05/12 11:41:21;;;;;;;3.95;3.60;;;25.80;99.10;;;;;;4995810;28;20169;-59
2022/05/12 11:46:42;;;;;;;4.45;3.30;;;25.70;98.20;;;;;;4995648;28;20208;-59
2022/05/12 11:49:40;;;;;;;4.00;3.58;;;25.50;98.40;;;;;;4995692;28;20169;-60
2022/05/12 11:52:39;;;;;;;3.25;3.05;;;25.50;99.20;;;;;;4995796;28;20277;-59
2022/05/12 11:55:26;;;;;;;5.85;3.80;;;25.70;99.90;;;;;;4994951;28;20165;-61
2022/05/12 11:58:13;;;;;;;4.00;3.30;;;25.90;99.90;;;;;;4995474;28;20205;-60
2022/05/12 12:00:41;;;;;;;4.75;3.58;;;26.10;99.90;;;;;;4974930;28;20174;-59
2022/05/12 12:03:27;;;;;;;4.85;3.25;;;26.30;99.70;;;;;;4974887;28;20182;-60
2022/05/12 12:05:53;;;;;;;3.70;3.28;;;26.50;99.20;;;;;;4915777;29;20717;-61
2022/05/12 12:08:30;;;;;;;3.30;3.00;;;26.60;99.60;;;;;;4915720;29;20235;-60
2022/05/12 12:11:20;;;;;;;3.63;3.33;;;26.70;99.90;;;;;;4916097;29;20201;-59
2022/05/12 12:13:47;;;;;;;3.67;3.22;;;26.70;99.20;;;;;;4915798;29;20188;-58
2022/05/12 12:16:22;;;;;;;3.60;3.30;;;26.70;98.40;;;;;;4915906;29;20180;-60
2022/05/12 12:19:01;;;;;;;4.18;3.40;;;26.60;99.10;;;;;;4916041;29;20383;-60
2022/05/12 12:22:17;;;;;;;6.07;3.08;;;26.80;98.30;;;;;;4915932;29;20341;-60
2022/05/12 12:24:52;;;;;;;4.10;3.22;;;26.90;98.90;;;;;;4896582;29;20185;-61
2022/05/12 12:27:27;;;;;;;4.53;3.00;;;27.30;99.00;;;;;;4896733;29;20261;-60
2022/05/12 12:29:52;;;;;;;5.13;3.25;;;27.40;98.60;;;;;;4897029;29;20184;-59
2022/05/12 12:32:31;;;;;;;5.35;3.35;;;27.40;98.80;;;;;;4896939;29;20232;-60
2022/05/12 12:35:24;;;;;;;3.83;3.30;;;27.30;96.50;;;;;;4896660;29;20240;-58
2022/05/12 12:37:51;;;;;;;7.20;3.33;;;27.00;96.80;;;;;;4896210;29;20690;-61
2022/05/12 12:40:31;;;;;;;4.18;3.33;;;26.90;98.50;;;;;;4896335;29;20204;-60
2022/05/12 12:43:18;;;;;;;5.43;3.72;;;26.70;97.70;;;;;;4923335;29;20286;-61
2022/05/12 12:45:51;;;;;;;3.92;3.38;;;26.60;98.60;;;;;;4952971;29;20270;-61
2022/05/12 12:48:42;;;;;;;6.50;3.70;;;26.20;98.20;;;;;;4953426;29;20214;-60
2022/05/12 12:51:07;;;;;;;5.40;3.40;;;26.00;99.10;;;;;;4953600;29;20182;-60
2022/05/12 12:56:32;;;;;;;4.25;3.72;;;25.70;98.90;;;;;;4953628;29;20226;-57
2022/05/12 12:59:04;;;;;;;5.47;3.55;;;25.80;99.70;;;;;;4954981;28;20202;-59
2022/05/12 13:01:40;;;;;;;5.10;3.60;;;26.10;98.50;;;;;;4973897;28;20182;-59
2022/05/12 13:04:08;;;;;;;6.65;3.63;;;26.50;97.50;;;;;;4974716;28;20651;-60
2022/05/12 13:06:37;;;;;;;6.57;3.80;;;26.50;97.60;;;;;;4974696;28;20612;-61
2022/05/12 13:09:11;;;;;;;4.75;3.35;;;26.30;97.40;;;;;;4974667;28;20202;-60
2022/05/12 13:11:39;;;;;;;4.07;3.65;;;26.30;98.00;;;;;;4974721;28;20308;-60
2022/05/12 13:14:11;;;;;;;4.40;3.58;;;26.30;97.20;;;;;;4974576;28;20201;-61
2022/05/12 13:16:41;;;;;;;5.05;3.47;;;26.50;97.80;;;;;;4974605;28;20174;-59
2022/05/12 13:19:08;;;;;;;4.35;3.40;;;26.70;99.10;;;;;;4974747;28;20670;-60
2022/05/12 13:21:46;;;;;;;5.63;3.47;;;26.90;98.70;;;;;;4973426;28;20186;-60
2022/05/12 13:24:19;;;;;;;5.15;3.50;;;27.20;96.90;;;;;;4973362;28;20238;-60
2022/05/12 13:26:48;;;;;;;5.38;3.60;;;27.30;99.10;;;;;;4974295;28;20241;-60
2022/05/12 13:29:21;;;;;;;4.80;3.40;;;27.20;97.50;;;;;;4974432;28;20248;-59
2022/05/12 13:32:00;;;;;;;4.30;3.28;;;27.00;97.00;;;;;;4974591;28;20249;-61